sensor_id;sensor_type;location;lat;lon;timestamp;pressure;altitude;pressure_sealevel;temperature
68127;BMP180;54931;52.098;21.006;2023-06-01T00:00:20;100376.40;;;9.46
68127;BMP180;54931;52.098;21.006;2023-06-01T00:03:08;100375.60;;;9.40
68127;BMP180;54931;52.098;21.006;2023-06-01T00:05:36;100371.80;;;9.40
68127;BMP180;54931;52.098;21.006;2023-06-01T00:08:03;100372.00;;;9.40
68127;BMP180;54931;52.098;21.006;2023-06-01T00:10:31;100369.00;;;9.40
68127;BMP180;54931;52.098;21.006;2023-06-01T00:12:59;100365.40;;;9.34
68127;BMP180;54931;52.098;21.006;2023-06-01T00:15:27;100361.60;;;9.30
68127;BMP180;54931;52.098;21.006;2023-06-01T00:17:55;100365.00;;;9.30
68127;BMP180;54931;52.098;21.006;2023-06-01T00:20:23;100358.40;;;9.30
68127;BMP180;54931;52.098;21.006;2023-06-01T00:22:51;100355.00;;;9.30
68127;BMP180;54931;52.098;21.006;2023-06-01T00:25:20;100355.20;;;9.30
68127;BMP180;54931;52.098;21.006;2023-06-01T00:27:50;100356.60;;;9.20
68127;BMP180;54931;52.098;21.006;2023-06-01T00:30:19;100352.80;;;9.20
68127;BMP180;54931;52.098;21.006;2023-06-01T00:32:49;100351.60;;;9.20
68127;BMP180;54931;52.098;21.006;2023-06-01T00:35:18;100349.00;;;9.20
68127;BMP180;54931;52.098;21.006;2023-06-01T00:37:48;100348.80;;;9.10
68127;BMP180;54931;52.098;21.006;2023-06-01T00:40:15;100345.80;;;9.10
68127;BMP180;54931;52.098;21.006;2023-06-01T00:42:43;100345.20;;;9.10
68127;BMP180;54931;52.098;21.006;2023-06-01T00:45:10;100345.20;;;9.10
68127;BMP180;54931;52.098;21.006;2023-06-01T00:47:40;100345.40;;;9.04
68127;BMP180;54931;52.098;21.006;2023-06-01T00:50:11;100343.60;;;9.00
68127;BMP180;54931;52.098;21.006;2023-06-01T00:52:40;100338.00;;;9.00
68127;BMP180;54931;52.098;21.006;2023-06-01T00:55:09;100333.40;;;9.00
68127;BMP180;54931;52.098;21.006;2023-06-01T00:57:38;100332.40;;;9.00
68127;BMP180;54931;52.098;21.006;2023-06-01T01:00:07;100335.20;;;9.00
68127;BMP180;54931;52.098;21.006;2023-06-01T01:02:37;100336.40;;;8.94
68127;BMP180;54931;52.098;21.006;2023-06-01T01:05:08;100336.20;;;8.90
68127;BMP180;54931;52.098;21.006;2023-06-01T01:08:18;100335.20;;;8.90
68127;BMP180;54931;52.098;21.006;2023-06-01T01:11:15;100329.20;;;8.82
68127;BMP180;54931;52.098;21.006;2023-06-01T01:14:16;100328.20;;;8.80
68127;BMP180;54931;52.098;21.006;2023-06-01T01:17:01;100325.00;;;8.80
68127;BMP180;54931;52.098;21.006;2023-06-01T01:25:27;100314.80;;;8.80
68127;BMP180;54931;52.098;21.006;2023-06-01T01:30:48;100308.40;;;8.80
68127;BMP180;54931;52.098;21.006;2023-06-01T01:33:17;100309.60;;;8.80
68127;BMP180;54931;52.098;21.006;2023-06-01T01:35:45;100307.80;;;8.80
68127;BMP180;54931;52.098;21.006;2023-06-01T01:38:13;100305.80;;;8.70
68127;BMP180;54931;52.098;21.006;2023-06-01T01:40:40;100305.00;;;8.70
68127;BMP180;54931;52.098;21.006;2023-06-01T01:43:08;100298.60;;;8.70
68127;BMP180;54931;52.098;21.006;2023-06-01T01:45:36;100296.80;;;8.70
68127;BMP180;54931;52.098;21.006;2023-06-01T01:48:19;100292.80;;;8.70
68127;BMP180;54931;52.098;21.006;2023-06-01T01:51:01;100294.00;;;8.60
68127;BMP180;54931;52.098;21.006;2023-06-01T01:53:30;100294.80;;;8.60
68127;BMP180;54931;52.098;21.006;2023-06-01T01:55:58;100294.00;;;8.60
68127;BMP180;54931;52.098;21.006;2023-06-01T01:58:27;100290.20;;;8.60
68127;BMP180;54931;52.098;21.006;2023-06-01T02:00:55;100288.00;;;8.60
68127;BMP180;54931;52.098;21.006;2023-06-01T02:03:23;100290.80;;;8.60
68127;BMP180;54931;52.098;21.006;2023-06-01T02:05:51;100290.60;;;8.56
68127;BMP180;54931;52.098;21.006;2023-06-01T02:08:18;100288.20;;;8.50
68127;BMP180;54931;52.098;21.006;2023-06-01T02:10:45;100285.40;;;8.52
68127;BMP180;54931;52.098;21.006;2023-06-01T02:13:13;100284.20;;;8.54
68127;BMP180;54931;52.098;21.006;2023-06-01T02:15:40;100282.80;;;8.54
68127;BMP180;54931;52.098;21.006;2023-06-01T02:18:08;100276.60;;;8.50
68127;BMP180;54931;52.098;21.006;2023-06-01T02:20:35;100272.20;;;8.58
68127;BMP180;54931;52.098;21.006;2023-06-01T02:23:03;100272.20;;;8.58
68127;BMP180;54931;52.098;21.006;2023-06-01T02:25:30;100271.20;;;8.58
68127;BMP180;54931;52.098;21.006;2023-06-01T02:27:57;100269.00;;;8.60
68127;BMP180;54931;52.098;21.006;2023-06-01T02:30:25;100269.40;;;8.60
68127;BMP180;54931;52.098;21.006;2023-06-01T02:32:53;100266.20;;;8.60
68127;BMP180;54931;52.098;21.006;2023-06-01T02:35:20;100264.20;;;8.60
68127;BMP180;54931;52.098;21.006;2023-06-01T02:37:48;100262.60;;;8.60
68127;BMP180;54931;52.098;21.006;2023-06-01T02:40:15;100265.20;;;8.60
68127;BMP180;54931;52.098;21.006;2023-06-01T02:42:44;100264.80;;;8.60
68127;BMP180;54931;52.098;21.006;2023-06-01T02:45:11;100257.00;;;8.62
68127;BMP180;54931;52.098;21.006;2023-06-01T02:47:38;100258.20;;;8.70
68127;BMP180;54931;52.098;21.006;2023-06-01T02:50:07;100251.60;;;8.70
68127;BMP180;54931;52.098;21.006;2023-06-01T02:52:34;100255.00;;;8.72
68127;BMP180;54931;52.098;21.006;2023-06-01T02:55:03;100249.80;;;8.80
68127;BMP180;54931;52.098;21.006;2023-06-01T02:57:30;100248.60;;;8.80
68127;BMP180;54931;52.098;21.006;2023-06-01T02:59:58;100251.40;;;8.84
68127;BMP180;54931;52.098;21.006;2023-06-01T03:02:25;100258.20;;;8.90
68127;BMP180;54931;52.098;21.006;2023-06-01T03:04:54;100258.20;;;8.90
68127;BMP180;54931;52.098;21.006;2023-06-01T03:07:21;100259.20;;;9.00
68127;BMP180;54931;52.098;21.006;2023-06-01T03:09:50;100258.20;;;9.02
68127;BMP180;54931;52.098;21.006;2023-06-01T03:12:18;100256.40;;;9.10
68127;BMP180;54931;52.098;21.006;2023-06-01T03:14:45;100258.20;;;9.20
68127;BMP180;54931;52.098;21.006;2023-06-01T03:17:12;100259.60;;;9.30
68127;BMP180;54931;52.098;21.006;2023-06-01T03:19:39;100257.20;;;9.44
68127;BMP180;54931;52.098;21.006;2023-06-01T03:22:07;100255.20;;;9.60
68127;BMP180;54931;52.098;21.006;2023-06-01T03:24:35;100252.00;;;9.70
68127;BMP180;54931;52.098;21.006;2023-06-01T03:27:04;100255.40;;;9.80
68127;BMP180;54931;52.098;21.006;2023-06-01T03:29:31;100251.80;;;9.90
68127;BMP180;54931;52.098;21.006;2023-06-01T03:31:59;100244.00;;;10.08
68127;BMP180;54931;52.098;21.006;2023-06-01T03:34:26;100244.20;;;10.26
68127;BMP180;54931;52.098;21.006;2023-06-01T03:37:00;100240.60;;;10.52
68127;BMP180;54931;52.098;21.006;2023-06-01T03:39:27;100239.60;;;10.82
68127;BMP180;54931;52.098;21.006;2023-06-01T03:41:55;100243.20;;;11.16
68127;BMP180;54931;52.098;21.006;2023-06-01T03:44:23;100246.60;;;11.50
68127;BMP180;54931;52.098;21.006;2023-06-01T03:46:51;100247.20;;;11.80
68127;BMP180;54931;52.098;21.006;2023-06-01T03:49:18;100245.40;;;12.18
68127;BMP180;54931;52.098;21.006;2023-06-01T03:51:48;100245.60;;;12.50
68127;BMP180;54931;52.098;21.006;2023-06-01T03:54:15;100245.40;;;12.82
68127;BMP180;54931;52.098;21.006;2023-06-01T03:56:42;100245.40;;;13.16
68127;BMP180;54931;52.098;21.006;2023-06-01T03:59:10;100249.60;;;13.50
68127;BMP180;54931;52.098;21.006;2023-06-01T04:01:37;100244.00;;;13.80
68127;BMP180;54931;52.098;21.006;2023-06-01T04:04:07;100249.40;;;14.18
68127;BMP180;54931;52.098;21.006;2023-06-01T04:06:35;100251.80;;;14.50
68127;BMP180;54931;52.098;21.006;2023-06-01T04:09:03;100253.60;;;14.80
68127;BMP180;54931;52.098;21.006;2023-06-01T04:11:34;100249.40;;;15.10
68127;BMP180;54931;52.098;21.006;2023-06-01T04:14:02;100244.80;;;15.40
68127;BMP180;54931;52.098;21.006;2023-06-01T04:16:30;100243.20;;;15.64
68127;BMP180;54931;52.098;21.006;2023-06-01T04:18:57;100239.40;;;15.90
68127;BMP180;54931;52.098;21.006;2023-06-01T04:21:25;100238.20;;;16.20
68127;BMP180;54931;52.098;21.006;2023-06-01T04:23:53;100237.60;;;16.42
68127;BMP180;54931;52.098;21.006;2023-06-01T04:26:20;100238.20;;;16.70
68127;BMP180;54931;52.098;21.006;2023-06-01T04:28:48;100230.60;;;17.00
68127;BMP180;54931;52.098;21.006;2023-06-01T04:31:15;100232.00;;;17.20
68127;BMP180;54931;52.098;21.006;2023-06-01T04:33:46;100227.60;;;17.50
68127;BMP180;54931;52.098;21.006;2023-06-01T04:36:20;100229.40;;;17.80
68127;BMP180;54931;52.098;21.006;2023-06-01T04:38:51;100223.00;;;18.10
68127;BMP180;54931;52.098;21.006;2023-06-01T04:41:21;100225.00;;;18.20
68127;BMP180;54931;52.098;21.006;2023-06-01T04:43:49;100221.20;;;18.40
68127;BMP180;54931;52.098;21.006;2023-06-01T04:46:20;100217.60;;;18.60
68127;BMP180;54931;52.098;21.006;2023-06-01T04:48:50;100220.20;;;18.70
68127;BMP180;54931;52.098;21.006;2023-06-01T04:51:28;100225.80;;;18.88
68127;BMP180;54931;52.098;21.006;2023-06-01T04:53:56;100221.00;;;19.00
68127;BMP180;54931;52.098;21.006;2023-06-01T04:56:24;100224.00;;;19.20
68127;BMP180;54931;52.098;21.006;2023-06-01T04:58:55;100217.00;;;19.30
68127;BMP180;54931;52.098;21.006;2023-06-01T05:01:24;100214.40;;;19.30
68127;BMP180;54931;52.098;21.006;2023-06-01T05:03:52;100211.60;;;19.50
68127;BMP180;54931;52.098;21.006;2023-06-01T05:06:22;100208.60;;;19.50
68127;BMP180;54931;52.098;21.006;2023-06-01T05:08:49;100207.60;;;19.50
68127;BMP180;54931;52.098;21.006;2023-06-01T05:11:17;100210.60;;;19.60
68127;BMP180;54931;52.098;21.006;2023-06-01T05:13:45;100208.40;;;19.80
68127;BMP180;54931;52.098;21.006;2023-06-01T05:16:12;100205.80;;;20.06
68127;BMP180;54931;52.098;21.006;2023-06-01T05:18:40;100206.20;;;20.12
68127;BMP180;54931;52.098;21.006;2023-06-01T05:21:08;100204.60;;;20.30
68127;BMP180;54931;52.098;21.006;2023-06-01T05:23:35;100206.40;;;20.52
68127;BMP180;54931;52.098;21.006;2023-06-01T05:26:02;100210.00;;;20.88
68127;BMP180;54931;52.098;21.006;2023-06-01T05:28:31;100211.80;;;21.00
68127;BMP180;54931;52.098;21.006;2023-06-01T05:30:58;100209.60;;;21.00
68127;BMP180;54931;52.098;21.006;2023-06-01T05:33:26;100205.60;;;21.20
68127;BMP180;54931;52.098;21.006;2023-06-01T05:35:53;100207.80;;;21.20
68127;BMP180;54931;52.098;21.006;2023-06-01T05:38:21;100208.80;;;21.20
68127;BMP180;54931;52.098;21.006;2023-06-01T05:40:48;100210.80;;;21.30
68127;BMP180;54931;52.098;21.006;2023-06-01T05:43:15;100213.00;;;21.30
68127;BMP180;54931;52.098;21.006;2023-06-01T05:45:43;100209.20;;;21.30
68127;BMP180;54931;52.098;21.006;2023-06-01T05:48:11;100208.80;;;21.50
68127;BMP180;54931;52.098;21.006;2023-06-01T05:50:41;100208.80;;;21.50
68127;BMP180;54931;52.098;21.006;2023-06-01T05:53:09;100205.00;;;21.60
68127;BMP180;54931;52.098;21.006;2023-06-01T05:55:37;100205.60;;;21.60
68127;BMP180;54931;52.098;21.006;2023-06-01T05:58:04;100203.00;;;21.60
68127;BMP180;54931;52.098;21.006;2023-06-01T06:00:33;100198.40;;;21.60
68127;BMP180;54931;52.098;21.006;2023-06-01T06:03:02;100198.60;;;21.76
68127;BMP180;54931;52.098;21.006;2023-06-01T06:05:31;100204.20;;;21.84
68127;BMP180;54931;52.098;21.006;2023-06-01T06:07:58;100197.20;;;21.98
68127;BMP180;54931;52.098;21.006;2023-06-01T06:10:26;100199.60;;;22.00
68127;BMP180;54931;52.098;21.006;2023-06-01T06:12:53;100197.00;;;22.24
68127;BMP180;54931;52.098;21.006;2023-06-01T06:15:21;100202.80;;;22.30
68127;BMP180;54931;52.098;21.006;2023-06-01T06:17:48;100198.80;;;22.40
68127;BMP180;54931;52.098;21.006;2023-06-01T06:20:16;100195.60;;;22.56
68127;BMP180;54931;52.098;21.006;2023-06-01T06:22:44;100195.00;;;22.48
68127;BMP180;54931;52.098;21.006;2023-06-01T06:25:11;100194.40;;;22.60
68127;BMP180;54931;52.098;21.006;2023-06-01T06:27:40;100190.20;;;22.70
68127;BMP180;54931;52.098;21.006;2023-06-01T06:30:08;100195.40;;;22.94
68127;BMP180;54931;52.098;21.006;2023-06-01T06:32:36;100190.60;;;23.10
68127;BMP180;54931;52.098;21.006;2023-06-01T06:35:04;100194.60;;;23.20
68127;BMP180;54931;52.098;21.006;2023-06-01T06:37:31;100193.20;;;23.60
68127;BMP180;54931;52.098;21.006;2023-06-01T06:39:59;100188.40;;;23.80
68127;BMP180;54931;52.098;21.006;2023-06-01T06:42:27;100188.20;;;24.00
68127;BMP180;54931;52.098;21.006;2023-06-01T06:44:54;100190.00;;;24.20
68127;BMP180;54931;52.098;21.006;2023-06-01T06:47:24;100183.80;;;24.22
68127;BMP180;54931;52.098;21.006;2023-06-01T06:49:52;100186.00;;;24.30
68127;BMP180;54931;52.098;21.006;2023-06-01T06:52:20;100188.80;;;24.50
68127;BMP180;54931;52.098;21.006;2023-06-01T06:54:48;100183.80;;;24.60
68127;BMP180;54931;52.098;21.006;2023-06-01T06:57:15;100182.40;;;24.50
68127;BMP180;54931;52.098;21.006;2023-06-01T06:59:44;100181.20;;;24.50
68127;BMP180;54931;52.098;21.006;2023-06-01T07:02:11;100178.40;;;24.50
68127;BMP180;54931;52.098;21.006;2023-06-01T07:04:39;100177.00;;;24.50
68127;BMP180;54931;52.098;21.006;2023-06-01T07:07:07;100176.80;;;24.72
68127;BMP180;54931;52.098;21.006;2023-06-01T07:09:34;100172.80;;;24.90
68127;BMP180;54931;52.098;21.006;2023-06-01T07:12:02;100173.40;;;24.98
68127;BMP180;54931;52.098;21.006;2023-06-01T07:14:29;100170.40;;;25.00
68127;BMP180;54931;52.098;21.006;2023-06-01T07:16:57;100171.40;;;25.20
68127;BMP180;54931;52.098;21.006;2023-06-01T07:19:25;100177.00;;;25.20
68127;BMP180;54931;52.098;21.006;2023-06-01T07:22:00;100174.20;;;25.10
68127;BMP180;54931;52.098;21.006;2023-06-01T07:24:27;100172.80;;;25.20
68127;BMP180;54931;52.098;21.006;2023-06-01T07:26:55;100174.00;;;25.30
68127;BMP180;54931;52.098;21.006;2023-06-01T07:29:24;100173.40;;;25.46
68127;BMP180;54931;52.098;21.006;2023-06-01T07:31:52;100169.20;;;25.60
68127;BMP180;54931;52.098;21.006;2023-06-01T07:34:20;100167.20;;;25.60
68127;BMP180;54931;52.098;21.006;2023-06-01T07:36:48;100166.20;;;25.80
68127;BMP180;54931;52.098;21.006;2023-06-01T07:39:16;100165.60;;;25.84
68127;BMP180;54931;52.098;21.006;2023-06-01T07:41:45;100161.60;;;25.84
68127;BMP180;54931;52.098;21.006;2023-06-01T07:44:12;100159.40;;;26.00
68127;BMP180;54931;52.098;21.006;2023-06-01T07:46:40;100159.00;;;26.00
68127;BMP180;54931;52.098;21.006;2023-06-01T07:49:08;100156.20;;;25.84
68127;BMP180;54931;52.098;21.006;2023-06-01T07:51:41;100158.20;;;25.56
68127;BMP180;54931;52.098;21.006;2023-06-01T07:54:09;100154.40;;;25.50
68127;BMP180;54931;52.098;21.006;2023-06-01T07:56:37;100151.80;;;25.58
68127;BMP180;54931;52.098;21.006;2023-06-01T07:59:05;100150.80;;;25.70
68127;BMP180;54931;52.098;21.006;2023-06-01T08:01:32;100150.60;;;25.60
68127;BMP180;54931;52.098;21.006;2023-06-01T08:04:00;100143.00;;;25.50
68127;BMP180;54931;52.098;21.006;2023-06-01T08:06:29;100144.40;;;25.60
68127;BMP180;54931;52.098;21.006;2023-06-01T08:09:02;100143.80;;;25.64
68127;BMP180;54931;52.098;21.006;2023-06-01T08:11:30;100144.60;;;25.50
68127;BMP180;54931;52.098;21.006;2023-06-01T08:13:58;100140.80;;;25.52
68127;BMP180;54931;52.098;21.006;2023-06-01T08:16:27;100145.60;;;25.50
68127;BMP180;54931;52.098;21.006;2023-06-01T08:18:54;100142.40;;;25.50
68127;BMP180;54931;52.098;21.006;2023-06-01T08:21:24;100144.20;;;25.60
68127;BMP180;54931;52.098;21.006;2023-06-01T08:23:53;100140.60;;;25.70
68127;BMP180;54931;52.098;21.006;2023-06-01T08:26:22;100143.00;;;25.60
68127;BMP180;54931;52.098;21.006;2023-06-01T08:28:50;100143.00;;;25.60
68127;BMP180;54931;52.098;21.006;2023-06-01T08:31:22;100141.20;;;25.70
68127;BMP180;54931;52.098;21.006;2023-06-01T08:33:50;100140.60;;;25.90
68127;BMP180;54931;52.098;21.006;2023-06-01T08:36:20;100142.00;;;26.10
68127;BMP180;54931;52.098;21.006;2023-06-01T08:38:49;100142.80;;;26.12
68127;BMP180;54931;52.098;21.006;2023-06-01T08:41:26;100127.40;;;26.00
68127;BMP180;54931;52.098;21.006;2023-06-01T08:44:02;100132.20;;;25.90
68127;BMP180;54931;52.098;21.006;2023-06-01T08:46:33;100127.20;;;25.88
68127;BMP180;54931;52.098;21.006;2023-06-01T08:49:01;100122.80;;;25.90
68127;BMP180;54931;52.098;21.006;2023-06-01T08:51:32;100125.00;;;26.00
68127;BMP180;54931;52.098;21.006;2023-06-01T08:54:02;100115.00;;;26.10
68127;BMP180;54931;52.098;21.006;2023-06-01T08:56:31;100119.80;;;26.30
68127;BMP180;54931;52.098;21.006;2023-06-01T08:58:59;100115.40;;;26.50
68127;BMP180;54931;52.098;21.006;2023-06-01T09:01:27;100108.80;;;26.48
68127;BMP180;54931;52.098;21.006;2023-06-01T09:03:55;100108.60;;;26.48
68127;BMP180;54931;52.098;21.006;2023-06-01T09:06:23;100104.60;;;26.60
68127;BMP180;54931;52.098;21.006;2023-06-01T09:08:50;100109.60;;;26.70
68127;BMP180;54931;52.098;21.006;2023-06-01T09:11:19;100109.60;;;26.68
68127;BMP180;54931;52.098;21.006;2023-06-01T09:13:46;100096.80;;;26.50
68127;BMP180;54931;52.098;21.006;2023-06-01T09:16:14;100095.00;;;26.42
68127;BMP180;54931;52.098;21.006;2023-06-01T09:18:53;100096.20;;;26.50
68127;BMP180;54931;52.098;21.006;2023-06-01T09:21:20;100099.20;;;26.50
68127;BMP180;54931;52.098;21.006;2023-06-01T09:23:48;100099.80;;;26.50
68127;BMP180;54931;52.098;21.006;2023-06-01T09:26:18;100092.40;;;26.40
68127;BMP180;54931;52.098;21.006;2023-06-01T09:28:56;100094.40;;;26.50
68127;BMP180;54931;52.098;21.006;2023-06-01T09:31:44;100091.00;;;26.90
68127;BMP180;54931;52.098;21.006;2023-06-01T09:34:17;100091.40;;;27.10
68127;BMP180;54931;52.098;21.006;2023-06-01T09:36:52;100087.80;;;27.00
68127;BMP180;54931;52.098;21.006;2023-06-01T09:39:24;100089.20;;;27.00
68127;BMP180;54931;52.098;21.006;2023-06-01T09:41:56;100087.40;;;27.10
68127;BMP180;54931;52.098;21.006;2023-06-01T09:44:39;100084.40;;;27.10
68127;BMP180;54931;52.098;21.006;2023-06-01T09:47:09;100085.40;;;27.10
68127;BMP180;54931;52.098;21.006;2023-06-01T09:49:40;100078.60;;;27.20
68127;BMP180;54931;52.098;21.006;2023-06-01T09:52:09;100086.20;;;27.30
68127;BMP180;54931;52.098;21.006;2023-06-01T09:54:41;100086.20;;;27.20
68127;BMP180;54931;52.098;21.006;2023-06-01T09:57:10;100079.60;;;27.02
68127;BMP180;54931;52.098;21.006;2023-06-01T09:59:41;100075.40;;;26.84
68127;BMP180;54931;52.098;21.006;2023-06-01T10:02:18;100071.40;;;26.80
68127;BMP180;54931;52.098;21.006;2023-06-01T10:04:52;100069.80;;;26.90
68127;BMP180;54931;52.098;21.006;2023-06-01T10:07:27;100072.80;;;26.94
68127;BMP180;54931;52.098;21.006;2023-06-01T10:09:57;100071.20;;;27.00
68127;BMP180;54931;52.098;21.006;2023-06-01T10:12:25;100070.60;;;26.90
68127;BMP180;54931;52.098;21.006;2023-06-01T10:14:57;100065.40;;;26.90
68127;BMP180;54931;52.098;21.006;2023-06-01T10:17:25;100065.60;;;27.00
68127;BMP180;54931;52.098;21.006;2023-06-01T10:19:55;100065.40;;;27.00
68127;BMP180;54931;52.098;21.006;2023-06-01T10:22:23;100063.00;;;27.02
68127;BMP180;54931;52.098;21.006;2023-06-01T10:24:55;100054.80;;;27.16
68127;BMP180;54931;52.098;21.006;2023-06-01T10:30:29;100054.60;;;27.30
68127;BMP180;54931;52.098;21.006;2023-06-01T10:32:56;100048.20;;;27.30
68127;BMP180;54931;52.098;21.006;2023-06-01T10:40:35;100042.80;;;26.96
68127;BMP180;54931;52.098;21.006;2023-06-01T10:43:03;100039.40;;;27.00
68127;BMP180;54931;52.098;21.006;2023-06-01T10:48:11;100034.00;;;27.12
68127;BMP180;54931;52.098;21.006;2023-06-01T10:50:40;100033.80;;;27.30
68127;BMP180;54931;52.098;21.006;2023-06-01T10:53:37;100027.60;;;27.40
68127;BMP180;54931;52.098;21.006;2023-06-01T10:56:24;100026.20;;;27.36
68127;BMP180;54931;52.098;21.006;2023-06-01T11:01:42;100017.80;;;27.20
68127;BMP180;54931;52.098;21.006;2023-06-01T11:04:10;100017.40;;;27.00
68127;BMP180;54931;52.098;21.006;2023-06-01T11:06:39;100017.60;;;27.10
68127;BMP180;54931;52.098;21.006;2023-06-01T11:09:11;100011.40;;;27.00
68127;BMP180;54931;52.098;21.006;2023-06-01T11:14:23;100008.00;;;26.70
68127;BMP180;54931;52.098;21.006;2023-06-01T11:16:53;100003.40;;;26.60
68127;BMP180;54931;52.098;21.006;2023-06-01T11:19:22;100004.40;;;26.50
68127;BMP180;54931;52.098;21.006;2023-06-01T11:21:56;100001.40;;;26.50
68127;BMP180;54931;52.098;21.006;2023-06-01T11:24:35;100011.00;;;26.66
68127;BMP180;54931;52.098;21.006;2023-06-01T11:27:09;99999.80;;;26.48
68127;BMP180;54931;52.098;21.006;2023-06-01T11:29:37;100008.80;;;26.18
68127;BMP180;54931;52.098;21.006;2023-06-01T11:32:06;100000.40;;;26.00
68127;BMP180;54931;52.098;21.006;2023-06-01T11:34:38;99996.40;;;26.04
68127;BMP180;54931;52.098;21.006;2023-06-01T11:37:12;99991.80;;;26.10
68127;BMP180;54931;52.098;21.006;2023-06-01T11:39:40;99995.00;;;26.00
68127;BMP180;54931;52.098;21.006;2023-06-01T11:42:11;99989.00;;;25.90
68127;BMP180;54931;52.098;21.006;2023-06-01T11:44:40;99989.40;;;25.90
68127;BMP180;54931;52.098;21.006;2023-06-01T11:47:08;99982.60;;;26.08
68127;BMP180;54931;52.098;21.006;2023-06-01T11:49:47;99991.80;;;26.10
68127;BMP180;54931;52.098;21.006;2023-06-01T11:52:16;99977.20;;;26.08
68127;BMP180;54931;52.098;21.006;2023-06-01T11:54:45;99979.00;;;26.10
68127;BMP180;54931;52.098;21.006;2023-06-01T11:57:13;99977.20;;;26.20
68127;BMP180;54931;52.098;21.006;2023-06-01T11:59:44;99974.60;;;26.40
68127;BMP180;54931;52.098;21.006;2023-06-01T12:02:19;99965.80;;;26.50
68127;BMP180;54931;52.098;21.006;2023-06-01T12:07:26;99967.00;;;26.38
68127;BMP180;54931;52.098;21.006;2023-06-01T12:09:55;99961.40;;;26.30
68127;BMP180;54931;52.098;21.006;2023-06-01T12:12:24;99964.80;;;26.30
68127;BMP180;54931;52.098;21.006;2023-06-01T12:14:52;99955.80;;;26.40
68127;BMP180;54931;52.098;21.006;2023-06-01T12:17:19;99953.00;;;26.50
68127;BMP180;54931;52.098;21.006;2023-06-01T12:19:48;99954.00;;;26.60
68127;BMP180;54931;52.098;21.006;2023-06-01T12:22:17;99948.80;;;26.50
68127;BMP180;54931;52.098;21.006;2023-06-01T12:24:45;99946.80;;;26.56
68127;BMP180;54931;52.098;21.006;2023-06-01T12:27:18;99950.80;;;26.70
68127;BMP180;54931;52.098;21.006;2023-06-01T12:29:49;99940.20;;;26.80
68127;BMP180;54931;52.098;21.006;2023-06-01T12:32:19;99945.80;;;27.00
68127;BMP180;54931;52.098;21.006;2023-06-01T12:35:03;99939.20;;;27.00
68127;BMP180;54931;52.098;21.006;2023-06-01T12:37:32;99943.20;;;26.90
68127;BMP180;54931;52.098;21.006;2023-06-01T12:39:59;99942.60;;;26.90
68127;BMP180;54931;52.098;21.006;2023-06-01T12:42:38;99938.00;;;26.90
68127;BMP180;54931;52.098;21.006;2023-06-01T12:45:07;99942.80;;;26.70
68127;BMP180;54931;52.098;21.006;2023-06-01T12:47:41;99934.80;;;26.80
68127;BMP180;54931;52.098;21.006;2023-06-01T12:50:11;99929.60;;;26.80
68127;BMP180;54931;52.098;21.006;2023-06-01T12:52:40;99922.80;;;26.80
68127;BMP180;54931;52.098;21.006;2023-06-01T12:55:11;99924.00;;;26.70
68127;BMP180;54931;52.098;21.006;2023-06-01T12:57:39;99916.60;;;26.68
68127;BMP180;54931;52.098;21.006;2023-06-01T13:00:07;99910.00;;;26.60
68127;BMP180;54931;52.098;21.006;2023-06-01T13:02:35;99912.60;;;26.60
68127;BMP180;54931;52.098;21.006;2023-06-01T13:05:03;99910.20;;;26.60
68127;BMP180;54931;52.098;21.006;2023-06-01T13:07:33;99908.60;;;26.60
68127;BMP180;54931;52.098;21.006;2023-06-01T13:10:00;99906.20;;;26.70
68127;BMP180;54931;52.098;21.006;2023-06-01T13:12:28;99902.80;;;26.80
68127;BMP180;54931;52.098;21.006;2023-06-01T13:14:55;99908.40;;;26.80
68127;BMP180;54931;52.098;21.006;2023-06-01T13:17:24;99894.80;;;26.90
68127;BMP180;54931;52.098;21.006;2023-06-01T13:19:53;99886.40;;;26.90
68127;BMP180;54931;52.098;21.006;2023-06-01T13:22:21;99884.20;;;26.90
68127;BMP180;54931;52.098;21.006;2023-06-01T13:24:48;99887.00;;;26.90
68127;BMP180;54931;52.098;21.006;2023-06-01T13:27:16;99889.80;;;27.00
68127;BMP180;54931;52.098;21.006;2023-06-01T13:29:43;99885.80;;;27.00
68127;BMP180;54931;52.098;21.006;2023-06-01T13:32:10;99889.20;;;26.90
68127;BMP180;54931;52.098;21.006;2023-06-01T13:34:39;99888.60;;;26.90
68127;BMP180;54931;52.098;21.006;2023-06-01T13:37:06;99886.20;;;26.80
68127;BMP180;54931;52.098;21.006;2023-06-01T13:39:34;99885.00;;;26.70
68127;BMP180;54931;52.098;21.006;2023-06-01T13:42:02;99878.00;;;26.80
68127;BMP180;54931;52.098;21.006;2023-06-01T13:44:30;99876.00;;;26.70
68127;BMP180;54931;52.098;21.006;2023-06-01T13:46:57;99879.40;;;26.80
68127;BMP180;54931;52.098;21.006;2023-06-01T13:49:25;99877.20;;;26.94
68127;BMP180;54931;52.098;21.006;2023-06-01T13:51:54;99873.80;;;26.90
68127;BMP180;54931;52.098;21.006;2023-06-01T13:54:21;99878.00;;;26.90
68127;BMP180;54931;52.098;21.006;2023-06-01T13:56:49;99873.20;;;27.00
68127;BMP180;54931;52.098;21.006;2023-06-01T13:59:17;99871.20;;;27.10
68127;BMP180;54931;52.098;21.006;2023-06-01T14:01:44;99866.60;;;27.20
68127;BMP180;54931;52.098;21.006;2023-06-01T14:04:12;99863.00;;;27.20
68127;BMP180;54931;52.098;21.006;2023-06-01T14:06:39;99863.80;;;27.20
68127;BMP180;54931;52.098;21.006;2023-06-01T14:09:07;99864.60;;;27.30
68127;BMP180;54931;52.098;21.006;2023-06-01T14:11:35;99853.60;;;27.42
68127;BMP180;54931;52.098;21.006;2023-06-01T14:14:02;99856.40;;;27.40
68127;BMP180;54931;52.098;21.006;2023-06-01T14:16:30;99854.20;;;27.40
68127;BMP180;54931;52.098;21.006;2023-06-01T14:18:57;99851.40;;;27.30
68127;BMP180;54931;52.098;21.006;2023-06-01T14:21:25;99848.40;;;27.30
68127;BMP180;54931;52.098;21.006;2023-06-01T14:23:53;99837.00;;;27.30
68127;BMP180;54931;52.098;21.006;2023-06-01T14:26:20;99844.00;;;27.26
68127;BMP180;54931;52.098;21.006;2023-06-01T14:28:48;99838.60;;;27.16